createdAt,value
2019-02-10T00:01:01.208Z,53.90
2019-02-10T00:06:02.524Z,53.60
2019-02-10T00:11:03.796Z,52.90
2019-02-10T00:16:08.077Z,53.00
2019-02-10T00:21:09.358Z,53.00
2019-02-10T00:26:10.624Z,53.30
2019-02-10T00:31:11.892Z,53.50
2019-02-10T00:36:13.169Z,53.90
2019-02-10T00:41:14.436Z,54.30
2019-02-10T00:46:15.715Z,54.40
2019-02-10T00:51:16.986Z,54.30
2019-02-10T00:56:18.261Z,54.30
2019-02-10T01:01:19.535Z,54.80
2019-02-10T01:06:20.831Z,54.70
2019-02-10T01:11:22.100Z,54.80
2019-02-10T01:16:23.694Z,54.60
2019-02-10T01:21:24.977Z,54.60
2019-02-10T01:26:26.356Z,55.20
2019-02-10T01:31:27.636Z,54.80
2019-02-10T01:36:28.913Z,54.60
2019-02-10T01:41:30.569Z,54.60
2019-02-10T01:46:31.844Z,54.30
2019-02-10T01:51:33.150Z,53.90
2019-02-10T01:56:34.789Z,54.30
2019-02-10T02:01:36.062Z,53.70
2019-02-10T02:06:37.352Z,53.40
2019-02-10T02:11:38.632Z,53.20
2019-02-10T02:16:39.905Z,53.40
2019-02-10T02:21:41.177Z,53.40
2019-02-10T02:26:42.455Z,53.00
2019-02-10T02:31:43.729Z,53.10
2019-02-10T02:36:44.997Z,52.90
2019-02-10T02:41:46.622Z,51.90
2019-02-10T02:46:47.885Z,52.50
2019-02-10T02:51:49.164Z,51.90
2019-02-10T02:56:50.437Z,52.10
2019-02-10T03:01:51.704Z,52.40
2019-02-10T03:06:53.006Z,52.80
2019-02-10T03:11:54.272Z,52.60
2019-02-10T03:16:55.549Z,52.50
2019-02-10T03:21:57.121Z,52.30
2019-02-10T03:26:58.393Z,51.60
2019-02-10T03:31:59.670Z,51.40
2019-02-10T03:37:00.940Z,51.20
2019-02-10T03:42:02.217Z,50.30
2019-02-10T03:47:03.492Z,50.80
2019-02-10T03:52:05.113Z,50.70
2019-02-10T03:57:06.394Z,50.90
2019-02-10T04:02:07.657Z,51.00
2019-02-10T04:07:08.969Z,52.40
2019-02-10T04:12:10.554Z,53.30
2019-02-10T04:17:11.820Z,53.70
2019-02-10T04:22:13.095Z,54.20
2019-02-10T04:27:14.362Z,54.20
2019-02-10T04:32:15.675Z,54.70
2019-02-10T04:37:17.304Z,54.50
2019-02-10T04:42:18.585Z,55.00
2019-02-10T04:47:20.149Z,56.60
2019-02-10T04:52:21.421Z,57.90
2019-02-10T04:57:22.693Z,56.50
2019-02-10T05:02:23.972Z,56.80
2019-02-10T05:07:25.268Z,55.10
2019-02-10T05:12:26.554Z,51.70
2019-02-10T05:17:27.817Z,47.80
2019-02-10T05:22:29.092Z,46.30
2019-02-10T05:27:30.377Z,44.50
2019-02-10T05:32:31.652Z,43.70
2019-02-10T05:37:33.038Z,42.80
2019-02-10T05:42:34.336Z,43.50
2019-02-10T05:47:36.025Z,44.30
2019-02-10T05:52:37.310Z,44.60
2019-02-10T05:57:38.551Z,45.10
2019-02-10T06:02:39.826Z,44.50
2019-02-10T06:07:41.197Z,44.20
2019-02-10T06:12:42.506Z,43.60
2019-02-10T06:17:43.784Z,43.00
2019-02-10T06:22:45.383Z,43.10
2019-02-10T06:27:46.987Z,42.90
2019-02-10T06:32:48.663Z,43.50
2019-02-10T06:37:49.937Z,42.60
2019-02-10T06:42:51.292Z,43.10
2019-02-10T06:47:52.517Z,43.00
2019-02-10T06:52:53.798Z,42.90
2019-02-10T06:57:55.061Z,42.70
2019-02-10T07:03:31.262Z,42.20
2019-02-10T07:08:32.538Z,42.30
2019-02-10T07:13:36.671Z,42.90
2019-02-10T07:19:04.918Z,43.00
2019-02-10T07:24:29.181Z,43.30
2019-02-10T07:29:34.618Z,43.50
2019-02-10T07:34:48.034Z,42.80
2019-02-10T07:40:11.985Z,43.20
2019-02-10T07:45:32.213Z,43.10
2019-02-10T07:50:57.380Z,43.20
2019-02-10T07:56:32.997Z,42.90
2019-02-10T08:01:38.093Z,42.50
2019-02-10T08:07:10.093Z,42.70
2019-02-10T08:12:24.449Z,42.90
2019-02-10T08:17:38.083Z,43.00
2019-02-10T08:22:45.997Z,42.50
2019-02-10T08:28:08.801Z,42.40
2019-02-10T08:33:22.974Z,43.30
2019-02-10T08:38:39.633Z,41.40
2019-02-10T08:43:50.690Z,41.60
2019-02-10T08:49:05.070Z,41.20
2019-02-10T08:54:07.057Z,40.70
2019-02-10T08:59:08.346Z,39.70
2019-02-10T09:04:09.658Z,38.50
2019-02-10T09:09:10.921Z,39.10
2019-02-10T09:14:12.202Z,38.50
2019-02-10T09:19:13.479Z,39.60
2019-02-10T09:24:15.058Z,39.20
2019-02-10T09:29:16.333Z,39.50
2019-02-10T09:34:17.896Z,38.70
2019-02-10T09:39:19.177Z,38.90
2019-02-10T09:44:20.774Z,40.50
2019-02-10T09:49:22.451Z,40.90
2019-02-10T09:54:24.124Z,40.00
2019-02-10T09:59:25.439Z,40.70
2019-02-10T10:04:26.721Z,41.70
2019-02-10T10:09:28.003Z,41.30
2019-02-10T10:14:30.791Z,41.50
2019-02-10T10:19:32.356Z,41.70
2019-02-10T10:24:33.960Z,41.90
2019-02-10T10:29:35.245Z,43.50
2019-02-10T10:34:36.537Z,46.00
2019-02-10T10:39:37.824Z,44.90
2019-02-10T10:44:39.417Z,44.80
2019-02-10T10:49:40.744Z,43.40
2019-02-10T10:54:43.049Z,44.60
2019-02-10T10:59:44.553Z,47.20
2019-02-10T11:04:45.888Z,46.20
2019-02-10T11:09:47.180Z,47.00
2019-02-10T11:14:48.459Z,46.40
2019-02-10T11:19:50.068Z,46.20
2019-02-10T11:24:51.809Z,46.30
2019-02-10T11:29:53.401Z,46.40
2019-02-10T11:34:54.676Z,46.60
2019-02-10T11:39:56.276Z,47.30
2019-02-10T11:44:57.562Z,48.30
2019-02-10T11:49:58.875Z,49.60
2019-02-10T11:55:00.239Z,50.80
2019-02-10T12:00:01.509Z,52.30
2019-02-10T12:05:05.265Z,52.40
2019-02-10T12:10:08.485Z,53.30
2019-02-10T12:15:14.789Z,55.30
2019-02-10T12:20:16.053Z,57.30
2019-02-10T12:25:17.478Z,58.30
2019-02-10T12:30:18.725Z,61.30
2019-02-10T12:35:21.622Z,64.80
2019-02-10T12:40:23.097Z,66.80
2019-02-10T12:45:24.737Z,69.00
2019-02-10T12:50:26.415Z,73.60
2019-02-10T12:55:27.689Z,76.20
2019-02-10T13:00:28.973Z,78.20
2019-02-10T13:05:30.625Z,73.20
2019-02-10T13:10:31.952Z,73.50
2019-02-10T13:15:33.470Z,74.90
2019-02-10T13:20:34.858Z,72.30
2019-02-10T13:25:36.170Z,71.50
2019-02-10T13:30:37.464Z,71.10
2019-02-10T13:35:38.736Z,67.60
2019-02-10T13:40:40.330Z,66.60
2019-02-10T13:45:41.980Z,64.70
2019-02-10T13:50:43.577Z,65.70
2019-02-10T13:55:44.861Z,65.50
2019-02-10T14:00:46.166Z,61.90
2019-02-10T14:05:47.472Z,60.00
2019-02-10T14:10:48.737Z,61.20
2019-02-10T14:15:50.017Z,60.80
2019-02-10T14:20:51.685Z,59.30
2019-02-10T14:25:54.189Z,59.10
2019-02-10T14:30:55.473Z,59.60
2019-02-10T14:35:57.124Z,61.60
2019-02-10T14:40:58.405Z,65.60
2019-02-10T14:45:59.685Z,67.20
2019-02-10T14:51:00.995Z,71.70
2019-02-10T14:56:02.606Z,75.10
2019-02-10T15:01:03.878Z,81.50
2019-02-10T15:06:05.190Z,84.10
2019-02-10T15:11:06.482Z,83.40
2019-02-10T15:16:07.756Z,85.10
2019-02-10T15:21:09.356Z,88.60
2019-02-10T15:26:10.631Z,89.70
2019-02-10T15:31:11.907Z,90.60
2019-02-10T15:36:14.431Z,89.10
2019-02-10T15:41:15.743Z,88.20
2019-02-10T15:46:16.960Z,90.10
2019-02-10T15:51:18.241Z,90.00
2019-02-10T15:56:19.909Z,88.00
2019-02-10T16:01:21.184Z,86.30
2019-02-10T16:06:22.703Z,86.20
2019-02-10T16:11:24.072Z,85.80
2019-02-10T16:16:25.385Z,85.60
2019-02-10T16:21:26.666Z,85.90
2019-02-10T16:26:27.948Z,85.20
2019-02-10T16:31:29.225Z,82.40
2019-02-10T16:36:30.509Z,83.10
2019-02-10T16:41:31.796Z,81.70
2019-02-10T16:46:33.073Z,81.00
2019-02-10T16:51:34.676Z,80.80
2019-02-10T16:56:35.953Z,79.80
2019-02-10T17:01:37.233Z,80.50
2019-02-10T17:06:38.550Z,81.20
2019-02-10T17:11:40.166Z,81.00
2019-02-10T17:16:41.441Z,81.00
2019-02-10T17:21:43.367Z,80.50
2019-02-10T17:26:45.356Z,80.70
2019-02-10T17:31:46.669Z,81.40
2019-02-10T17:36:48.325Z,79.80
2019-02-10T17:41:49.634Z,78.50
2019-02-10T17:46:50.929Z,77.70
2019-02-10T17:51:52.214Z,75.80
2019-02-10T17:56:53.494Z,81.30
2019-02-10T18:01:54.789Z,83.90
2019-02-10T18:06:56.068Z,83.80
2019-02-10T18:11:57.349Z,82.80
2019-02-10T18:17:03.545Z,86.40
2019-02-10T18:22:13.059Z,83.00
2019-02-10T18:27:16.224Z,81.50
2019-02-10T18:32:22.315Z,86.10
2019-02-10T18:37:28.277Z,86.40
2019-02-10T18:42:31.481Z,86.10
2019-02-10T18:47:38.012Z,86.20
2019-02-10T18:52:41.200Z,88.20
2019-02-10T18:57:47.145Z,88.60
2019-02-10T19:02:50.317Z,87.50
2019-02-10T19:07:53.541Z,87.00
2019-02-10T19:13:13.204Z,86.90
2019-02-10T19:18:19.187Z,85.70
2019-02-10T19:23:28.437Z,83.10
2019-02-10T19:28:34.479Z,82.90
2019-02-10T19:33:43.797Z,84.60
2019-02-10T19:38:53.009Z,84.80
2019-02-10T19:44:02.161Z,85.30
2019-02-10T19:49:05.355Z,86.10
2019-02-10T19:54:17.693Z,85.90
2019-02-10T19:59:43.344Z,84.70
2019-02-10T20:04:54.389Z,85.40
2019-02-10T20:10:02.541Z,85.10
2019-02-10T20:15:16.199Z,85.30
2019-02-10T20:20:27.013Z,84.70
2019-02-10T20:25:32.041Z,84.40
2019-02-10T20:30:53.601Z,83.10
2019-02-10T20:36:01.945Z,83.20
2019-02-10T20:41:06.977Z,82.70
2019-02-10T20:46:24.045Z,82.60
2019-02-10T20:51:31.773Z,82.00
2019-02-10T20:56:48.995Z,81.40
2019-02-10T21:02:00.161Z,80.90
2019-02-10T21:07:14.021Z,81.80
2019-02-10T21:12:20.632Z,80.70
2019-02-10T21:17:25.750Z,79.80
2019-02-10T21:22:39.617Z,80.80
2019-02-10T21:27:50.700Z,79.60
2019-02-10T21:33:07.697Z,79.80
2019-02-10T21:38:13.048Z,80.00
2019-02-10T21:43:18.501Z,80.10
2019-02-10T21:48:23.532Z,80.20
2019-02-10T21:53:27.029Z,80.30
2019-02-10T21:58:30.434Z,80.50
2019-02-10T22:03:33.839Z,81.00
2019-02-10T22:08:38.263Z,80.40
2019-02-10T22:13:41.725Z,79.80
2019-02-10T22:18:45.486Z,79.80
2019-02-10T22:23:49.043Z,80.40
2019-02-10T22:28:52.382Z,79.60
2019-02-10T22:33:55.790Z,78.60
2019-02-10T22:38:59.596Z,78.70
2019-02-10T22:44:02.993Z,79.10
2019-02-10T22:49:06.389Z,79.10
2019-02-10T22:54:09.785Z,79.00
2019-02-10T22:59:13.536Z,79.30
2019-02-10T23:04:16.929Z,80.00
2019-02-10T23:09:21.978Z,80.70
2019-02-10T23:14:25.378Z,81.80
2019-02-10T23:19:28.777Z,82.10
2019-02-10T23:24:32.168Z,82.90
2019-02-10T23:29:35.579Z,83.60
2019-02-10T23:34:38.969Z,84.20
2019-02-10T23:39:42.361Z,84.80
2019-02-10T23:44:45.770Z,85.30
2019-02-10T23:49:49.155Z,85.70
2019-02-10T23:54:52.558Z,87.40
2019-02-10T23:59:55.952Z,87.60
